sensor_id;sensor_type;location;lat;lon;timestamp;P1;P2;P0
62599;PMS7003;48671;48.922;2.346;2023-02-28T00:00:47;203.75;200.75;199.00
62599;PMS7003;48671;48.922;2.346;2023-02-28T00:03:12;200.75;182.75;179.25
62599;PMS7003;48671;48.922;2.346;2023-02-28T00:05:38;226.50;208.75;198.25
62599;PMS7003;48671;48.922;2.346;2023-02-28T00:08:03;196.67;180.33;176.33
62599;PMS7003;48671;48.922;2.346;2023-02-28T00:10:29;185.50;168.25;163.75
62599;PMS7003;48671;48.922;2.346;2023-02-28T00:12:59;187.50;170.25;165.00
62599;PMS7003;48671;48.922;2.346;2023-02-28T00:15:29;175.25;159.00;156.50
62599;PMS7003;48671;48.922;2.346;2023-02-28T00:17:54;164.50;146.50;142.75
62599;PMS7003;48671;48.922;2.346;2023-02-28T00:20:20;165.50;146.00;143.00
62599;PMS7003;48671;48.922;2.346;2023-02-28T00:22:46;154.00;137.75;133.25
62599;PMS7003;48671;48.922;2.346;2023-02-28T00:25:15;158.33;140.67;136.33
62599;PMS7003;48671;48.922;2.346;2023-02-28T00:27:43;155.00;136.33;133.33
62599;PMS7003;48671;48.922;2.346;2023-02-28T00:30:10;155.75;137.50;133.00
62599;PMS7003;48671;48.922;2.346;2023-02-28T00:32:40;157.00;139.67;135.33
62599;PMS7003;48671;48.922;2.346;2023-02-28T00:35:06;160.50;141.25;137.50
62599;PMS7003;48671;48.922;2.346;2023-02-28T00:37:32;130.25;114.25;112.50
62599;PMS7003;48671;48.922;2.346;2023-02-28T00:39:57;155.33;141.00;137.33
62599;PMS7003;48671;48.922;2.346;2023-02-28T00:42:23;155.25;135.25;134.75
62599;PMS7003;48671;48.922;2.346;2023-02-28T00:44:49;150.33;132.33;129.33
62599;PMS7003;48671;48.922;2.346;2023-02-28T00:47:14;136.75;119.50;116.50
62599;PMS7003;48671;48.922;2.346;2023-02-28T00:49:39;150.33;135.00;130.67
62599;PMS7003;48671;48.922;2.346;2023-02-28T00:52:05;149.75;133.75;131.75
62599;PMS7003;48671;48.922;2.346;2023-02-28T00:54:30;157.67;136.33;133.33
62599;PMS7003;48671;48.922;2.346;2023-02-28T00:56:56;149.75;134.00;128.50
62599;PMS7003;48671;48.922;2.346;2023-02-28T00:59:21;109.25;81.75;78.75
62599;PMS7003;48671;48.922;2.346;2023-02-28T01:01:47;99.33;72.00;62.33
62599;PMS7003;48671;48.922;2.346;2023-02-28T01:04:13;101.50;74.00;67.00
62599;PMS7003;48671;48.922;2.346;2023-02-28T01:06:39;148.50;130.00;127.50
62599;PMS7003;48671;48.922;2.346;2023-02-28T01:09:04;145.67;129.33;124.00
62599;PMS7003;48671;48.922;2.346;2023-02-28T01:11:31;139.75;121.50;118.00
62599;PMS7003;48671;48.922;2.346;2023-02-28T01:13:57;146.67;130.67;127.00
62599;PMS7003;48671;48.922;2.346;2023-02-28T01:16:24;118.25;100.75;96.25
62599;PMS7003;48671;48.922;2.346;2023-02-28T01:18:50;141.00;123.75;120.75
62599;PMS7003;48671;48.922;2.346;2023-02-28T01:21:16;140.50;124.50;122.50
62599;PMS7003;48671;48.922;2.346;2023-02-28T01:23:43;95.60;70.60;60.60
62599;PMS7003;48671;48.922;2.346;2023-02-28T01:26:10;137.67;121.00;116.67
62599;PMS7003;48671;48.922;2.346;2023-02-28T01:28:37;130.25;113.25;110.25
62599;PMS7003;48671;48.922;2.346;2023-02-28T01:31:02;141.00;124.33;119.33
62599;PMS7003;48671;48.922;2.346;2023-02-28T01:33:28;154.25;132.50;128.00
62599;PMS7003;48671;48.922;2.346;2023-02-28T01:35:57;112.50;86.25;83.00
62599;PMS7003;48671;48.922;2.346;2023-02-28T01:38:24;136.33;120.33;117.00
62599;PMS7003;48671;48.922;2.346;2023-02-28T01:40:49;133.33;118.00;115.00
62599;PMS7003;48671;48.922;2.346;2023-02-28T01:43:19;126.33;108.33;106.00
62599;PMS7003;48671;48.922;2.346;2023-02-28T01:45:46;122.00;104.67;100.00
62599;PMS7003;48671;48.922;2.346;2023-02-28T01:48:12;135.00;118.00;113.50
62599;PMS7003;48671;48.922;2.346;2023-02-28T01:50:39;122.50;105.25;102.00
62599;PMS7003;48671;48.922;2.346;2023-02-28T01:53:10;95.67;70.33;58.00
62599;PMS7003;48671;48.922;2.346;2023-02-28T01:55:39;123.75;105.00;101.25
62599;PMS7003;48671;48.922;2.346;2023-02-28T01:58:07;103.75;75.25;68.00
62599;PMS7003;48671;48.922;2.346;2023-02-28T02:00:34;99.75;72.25;61.00
62599;PMS7003;48671;48.922;2.346;2023-02-28T02:03:08;96.50;68.50;57.00
62599;PMS7003;48671;48.922;2.346;2023-02-28T02:05:36;95.00;68.75;54.50
62599;PMS7003;48671;48.922;2.346;2023-02-28T02:08:04;102.00;74.20;64.00
62599;PMS7003;48671;48.922;2.346;2023-02-28T02:10:35;90.50;66.25;52.25
62599;PMS7003;48671;48.922;2.346;2023-02-28T02:13:19;141.00;123.67;121.33
62599;PMS7003;48671;48.922;2.346;2023-02-28T02:27:02;102.75;73.50;64.00
62599;PMS7003;48671;48.922;2.346;2023-02-28T02:41:04;109.80;83.80;80.60
62599;PMS7003;48671;48.922;2.346;2023-02-28T02:43:47;115.25;92.25;89.25
62599;PMS7003;48671;48.922;2.346;2023-02-28T02:46:19;110.00;83.75;81.25
62599;PMS7003;48671;48.922;2.346;2023-02-28T02:48:47;112.50;88.00;81.50
62599;PMS7003;48671;48.922;2.346;2023-02-28T02:51:16;108.25;81.75;77.25
62599;PMS7003;48671;48.922;2.346;2023-02-28T02:56:30;108.50;82.50;77.75
62599;PMS7003;48671;48.922;2.346;2023-02-28T02:59:02;104.75;76.50;70.25
62599;PMS7003;48671;48.922;2.346;2023-02-28T03:01:32;104.00;76.33;70.67
62599;PMS7003;48671;48.922;2.346;2023-02-28T03:04:04;115.25;95.00;92.00
62599;PMS7003;48671;48.922;2.346;2023-02-28T03:06:33;111.25;84.75;81.00
62599;PMS7003;48671;48.922;2.346;2023-02-28T03:09:00;118.00;97.00;94.67
62599;PMS7003;48671;48.922;2.346;2023-02-28T03:11:25;114.25;90.75;86.00
62599;PMS7003;48671;48.922;2.346;2023-02-28T03:19:26;116.80;98.00;94.40
62599;PMS7003;48671;48.922;2.346;2023-02-28T03:22:03;114.50;91.25;87.50
62599;PMS7003;48671;48.922;2.346;2023-02-28T03:27:42;88.60;62.40;49.00
62599;PMS7003;48671;48.922;2.346;2023-02-28T03:32:59;125.75;107.00;105.75
62599;PMS7003;48671;48.922;2.346;2023-02-28T03:35:32;117.33;99.33;96.33
62599;PMS7003;48671;48.922;2.346;2023-02-28T03:38:05;108.60;83.00;81.00
62599;PMS7003;48671;48.922;2.346;2023-02-28T03:40:39;115.00;97.75;95.75
62599;PMS7003;48671;48.922;2.346;2023-02-28T03:43:12;118.00;94.00;91.00
62599;PMS7003;48671;48.922;2.346;2023-02-28T03:45:41;119.00;99.40;96.40
62599;PMS7003;48671;48.922;2.346;2023-02-28T03:50:44;112.00;88.25;86.00
62599;PMS7003;48671;48.922;2.346;2023-02-28T03:55:56;108.40;82.60;79.60
62599;PMS7003;48671;48.922;2.346;2023-02-28T03:58:28;112.20;90.40;87.00
62599;PMS7003;48671;48.922;2.346;2023-02-28T04:03:38;112.20;88.40;86.80
62599;PMS7003;48671;48.922;2.346;2023-02-28T04:06:05;109.40;83.20;81.40
62599;PMS7003;48671;48.922;2.346;2023-02-28T04:08:33;106.20;79.40;76.80
62599;PMS7003;48671;48.922;2.346;2023-02-28T04:11:16;112.00;88.00;83.50
62599;PMS7003;48671;48.922;2.346;2023-02-28T04:13:45;115.60;94.80;92.00
62599;PMS7003;48671;48.922;2.346;2023-02-28T04:16:11;111.75;87.75;86.00
62599;PMS7003;48671;48.922;2.346;2023-02-28T04:18:37;114.75;95.50;93.75
62599;PMS7003;48671;48.922;2.346;2023-02-28T04:21:03;109.60;84.40;81.20
62599;PMS7003;48671;48.922;2.346;2023-02-28T04:23:28;113.25;92.75;89.75
62599;PMS7003;48671;48.922;2.346;2023-02-28T04:25:55;115.50;94.75;91.50
62599;PMS7003;48671;48.922;2.346;2023-02-28T04:28:20;93.25;67.50;54.50
62599;PMS7003;48671;48.922;2.346;2023-02-28T04:30:46;112.50;90.75;88.00
62599;PMS7003;48671;48.922;2.346;2023-02-28T04:33:11;119.25;99.25;96.75
62599;PMS7003;48671;48.922;2.346;2023-02-28T04:35:36;116.75;101.75;100.25
62599;PMS7003;48671;48.922;2.346;2023-02-28T04:38:02;105.50;76.75;69.00
62599;PMS7003;48671;48.922;2.346;2023-02-28T04:40:27;114.75;97.25;95.50
62599;PMS7003;48671;48.922;2.346;2023-02-28T04:42:52;102.67;74.67;69.00
62599;PMS7003;48671;48.922;2.346;2023-02-28T04:45:17;111.75;86.50;84.50
62599;PMS7003;48671;48.922;2.346;2023-02-28T04:47:43;115.75;96.50;93.50
62599;PMS7003;48671;48.922;2.346;2023-02-28T04:50:08;114.50;93.75;90.75
62599;PMS7003;48671;48.922;2.346;2023-02-28T04:52:34;117.00;99.00;93.25
62599;PMS7003;48671;48.922;2.346;2023-02-28T04:54:59;105.25;77.75;73.00
62599;PMS7003;48671;48.922;2.346;2023-02-28T04:57:25;119.00;102.50;99.75
62599;PMS7003;48671;48.922;2.346;2023-02-28T04:59:50;111.50;90.75;88.50
62599;PMS7003;48671;48.922;2.346;2023-02-28T05:02:15;115.33;97.33;92.67
62599;PMS7003;48671;48.922;2.346;2023-02-28T05:04:40;117.50;99.75;96.75
62599;PMS7003;48671;48.922;2.346;2023-02-28T05:07:06;116.33;98.00;93.67
62599;PMS7003;48671;48.922;2.346;2023-02-28T05:09:31;112.67;92.00;90.00
62599;PMS7003;48671;48.922;2.346;2023-02-28T05:11:58;114.60;91.40;87.80
62599;PMS7003;48671;48.922;2.346;2023-02-28T05:14:23;111.00;88.25;84.25
62599;PMS7003;48671;48.922;2.346;2023-02-28T05:16:48;119.00;102.75;98.00
62599;PMS7003;48671;48.922;2.346;2023-02-28T05:19:14;119.75;104.25;102.00
62599;PMS7003;48671;48.922;2.346;2023-02-28T05:21:40;98.75;72.25;62.00
62599;PMS7003;48671;48.922;2.346;2023-02-28T05:24:13;107.80;82.20;78.40
62599;PMS7003;48671;48.922;2.346;2023-02-28T05:26:39;119.75;101.00;96.75
62599;PMS7003;48671;48.922;2.346;2023-02-28T05:29:06;122.20;102.80;97.80
62599;PMS7003;48671;48.922;2.346;2023-02-28T05:31:32;133.50;119.00;113.75
62599;PMS7003;48671;48.922;2.346;2023-02-28T05:33:57;118.33;100.33;95.67
62599;PMS7003;48671;48.922;2.346;2023-02-28T05:36:23;118.50;98.75;93.75
62599;PMS7003;48671;48.922;2.346;2023-02-28T05:38:49;114.67;94.33;89.00
62599;PMS7003;48671;48.922;2.346;2023-02-28T05:41:15;122.50;106.25;101.75
62599;PMS7003;48671;48.922;2.346;2023-02-28T05:43:41;122.67;109.67;105.33
62599;PMS7003;48671;48.922;2.346;2023-02-28T05:46:07;115.00;96.33;92.00
62599;PMS7003;48671;48.922;2.346;2023-02-28T05:48:35;116.33;99.33;95.33
62599;PMS7003;48671;48.922;2.346;2023-02-28T05:51:01;112.00;92.00;86.75
62599;PMS7003;48671;48.922;2.346;2023-02-28T05:53:27;110.00;90.75;85.00
62599;PMS7003;48671;48.922;2.346;2023-02-28T05:55:53;115.00;99.00;91.00
62599;PMS7003;48671;48.922;2.346;2023-02-28T05:58:19;83.50;60.50;47.00
62599;PMS7003;48671;48.922;2.346;2023-02-28T06:00:45;86.50;65.50;50.50
62599;PMS7003;48671;48.922;2.346;2023-02-28T06:03:10;88.00;64.00;50.50
62599;PMS7003;48671;48.922;2.346;2023-02-28T06:05:36;92.00;68.50;55.00
62599;PMS7003;48671;48.922;2.346;2023-02-28T06:08:01;85.67;66.33;51.67
62599;PMS7003;48671;48.922;2.346;2023-02-28T06:10:26;63.67;47.00;36.33
62599;PMS7003;48671;48.922;2.346;2023-02-28T06:12:52;79.25;56.50;42.00
62599;PMS7003;48671;48.922;2.346;2023-02-28T06:15:17;42.33;42.00;31.67
62599;PMS7003;48671;48.922;2.346;2023-02-28T06:17:43;44.00;30.33;25.33
62599;PMS7003;48671;48.922;2.346;2023-02-28T06:20:09;69.00;51.25;38.50
62599;PMS7003;48671;48.922;2.346;2023-02-28T06:22:37;57.25;38.75;30.75
62599;PMS7003;48671;48.922;2.346;2023-02-28T06:25:04;52.50;39.50;25.50
62599;PMS7003;48671;48.922;2.346;2023-02-28T06:27:30;41.25;28.75;18.25
62599;PMS7003;48671;48.922;2.346;2023-02-28T06:29:57;41.50;24.00;19.00
62599;PMS7003;48671;48.922;2.346;2023-02-28T06:32:22;40.33;30.33;21.33
62599;PMS7003;48671;48.922;2.346;2023-02-28T06:34:47;23.00;23.00;13.67
62599;PMS7003;48671;48.922;2.346;2023-02-28T06:37:14;49.75;39.25;28.25
62599;PMS7003;48671;48.922;2.346;2023-02-28T06:39:39;13.25;11.75;4.50
62599;PMS7003;48671;48.922;2.346;2023-02-28T06:42:04;51.67;39.00;27.00
62599;PMS7003;48671;48.922;2.346;2023-02-28T06:44:30;77.33;61.00;46.67
62599;PMS7003;48671;48.922;2.346;2023-02-28T06:47:00;28.50;24.25;11.50
62599;PMS7003;48671;48.922;2.346;2023-02-28T06:49:28;40.25;36.00;23.50
62599;PMS7003;48671;48.922;2.346;2023-02-28T06:51:55;34.50;18.75;9.50
62599;PMS7003;48671;48.922;2.346;2023-02-28T06:54:20;35.50;33.00;23.25
62599;PMS7003;48671;48.922;2.346;2023-02-28T06:56:46;35.00;19.33;11.67
62599;PMS7003;48671;48.922;2.346;2023-02-28T06:59:12;35.00;30.50;23.00
62599;PMS7003;48671;48.922;2.346;2023-02-28T07:01:37;38.75;21.50;20.00
62599;PMS7003;48671;48.922;2.346;2023-02-28T07:04:04;19.00;10.25;4.50
62599;PMS7003;48671;48.922;2.346;2023-02-28T07:06:30;20.75;11.75;0.25
62599;PMS7003;48671;48.922;2.346;2023-02-28T07:08:56;17.00;14.50;6.25
62599;PMS7003;48671;48.922;2.346;2023-02-28T07:11:22;18.33;16.33;9.00
62599;PMS7003;48671;48.922;2.346;2023-02-28T07:13:50;10.00;8.25;0.00
62599;PMS7003;48671;48.922;2.346;2023-02-28T07:16:19;23.00;20.00;8.25
62599;PMS7003;48671;48.922;2.346;2023-02-28T07:18:45;23.00;19.75;12.75
62599;PMS7003;48671;48.922;2.346;2023-02-28T07:21:10;21.67;18.67;10.00
62599;PMS7003;48671;48.922;2.346;2023-02-28T07:23:36;45.00;36.00;25.00
62599;PMS7003;48671;48.922;2.346;2023-02-28T07:26:05;66.50;56.75;43.75
62599;PMS7003;48671;48.922;2.346;2023-02-28T07:28:31;59.75;50.00;37.75
62599;PMS7003;48671;48.922;2.346;2023-02-28T07:30:57;96.25;78.00;68.25
62599;PMS7003;48671;48.922;2.346;2023-02-28T07:33:22;110.75;86.00;77.50
62599;PMS7003;48671;48.922;2.346;2023-02-28T07:35:48;158.00;135.00;113.67
62599;PMS7003;48671;48.922;2.346;2023-02-28T07:38:15;172.75;155.25;127.75
62599;PMS7003;48671;48.922;2.346;2023-02-28T07:40:40;142.00;132.00;118.33
62599;PMS7003;48671;48.922;2.346;2023-02-28T07:43:05;218.00;215.25;161.50
62599;PMS7003;48671;48.922;2.346;2023-02-28T07:45:31;221.25;217.25;151.00
62599;PMS7003;48671;48.922;2.346;2023-02-28T07:47:59;104.50;99.75;69.25
62599;PMS7003;48671;48.922;2.346;2023-02-28T07:50:25;19.75;19.75;14.00
62599;PMS7003;48671;48.922;2.346;2023-02-28T07:52:52;14.75;14.75;11.25
62599;PMS7003;48671;48.922;2.346;2023-02-28T07:55:17;2.67;1.67;0.67
62599;PMS7003;48671;48.922;2.346;2023-02-28T07:57:43;0.25;0.25;0.00
62599;PMS7003;48671;48.922;2.346;2023-02-28T08:00:09;0.00;0.00;0.00
62599;PMS7003;48671;48.922;2.346;2023-02-28T08:02:36;5.75;5.75;3.00
62599;PMS7003;48671;48.922;2.346;2023-02-28T08:05:01;31.25;31.25;25.25
62599;PMS7003;48671;48.922;2.346;2023-02-28T08:07:27;51.50;46.50;35.75
62599;PMS7003;48671;48.922;2.346;2023-02-28T08:09:53;104.50;98.75;83.00
62599;PMS7003;48671;48.922;2.346;2023-02-28T08:12:18;139.75;139.75;118.25
62599;PMS7003;48671;48.922;2.346;2023-02-28T08:14:44;165.75;165.75;143.00
62599;PMS7003;48671;48.922;2.346;2023-02-28T08:17:10;137.00;134.33;118.00
62599;PMS7003;48671;48.922;2.346;2023-02-28T08:19:35;153.50;147.25;126.00
62599;PMS7003;48671;48.922;2.346;2023-02-28T08:22:01;143.33;135.67;118.67
62599;PMS7003;48671;48.922;2.346;2023-02-28T08:24:26;151.50;148.50;129.25
62599;PMS7003;48671;48.922;2.346;2023-02-28T08:26:52;139.00;133.25;122.75
62599;PMS7003;48671;48.922;2.346;2023-02-28T08:29:17;166.00;160.50;136.25
62599;PMS7003;48671;48.922;2.346;2023-02-28T08:31:42;174.50;169.00;153.25
62599;PMS7003;48671;48.922;2.346;2023-02-28T08:34:08;147.75;140.75;131.00
62599;PMS7003;48671;48.922;2.346;2023-02-28T08:36:35;145.00;137.50;131.00
62599;PMS7003;48671;48.922;2.346;2023-02-28T08:39:01;143.50;138.00;129.75
62599;PMS7003;48671;48.922;2.346;2023-02-28T08:41:26;155.50;144.00;137.75
62599;PMS7003;48671;48.922;2.346;2023-02-28T08:43:52;152.00;139.50;132.50
62599;PMS7003;48671;48.922;2.346;2023-02-28T08:46:18;152.00;138.25;128.25
62599;PMS7003;48671;48.922;2.346;2023-02-28T08:48:44;147.67;134.00;125.67
62599;PMS7003;48671;48.922;2.346;2023-02-28T08:51:11;153.67;143.67;134.00
62599;PMS7003;48671;48.922;2.346;2023-02-28T08:53:43;229.33;219.67;187.00
62599;PMS7003;48671;48.922;2.346;2023-02-28T08:56:10;270.75;262.75;225.25
62599;PMS7003;48671;48.922;2.346;2023-02-28T08:58:39;145.50;136.75;131.25
62599;PMS7003;48671;48.922;2.346;2023-02-28T09:01:27;146.75;136.25;127.75
62599;PMS7003;48671;48.922;2.346;2023-02-28T09:03:52;224.25;208.25;181.50
62599;PMS7003;48671;48.922;2.346;2023-02-28T09:06:19;150.67;141.67;133.33
62599;PMS7003;48671;48.922;2.346;2023-02-28T09:08:46;142.00;136.75;128.00
62599;PMS7003;48671;48.922;2.346;2023-02-28T09:11:12;191.00;181.25;165.50
62599;PMS7003;48671;48.922;2.346;2023-02-28T09:13:38;155.00;145.00;138.00
62599;PMS7003;48671;48.922;2.346;2023-02-28T09:16:04;144.75;136.50;129.25
62599;PMS7003;48671;48.922;2.346;2023-02-28T09:18:36;155.00;142.00;137.33
62599;PMS7003;48671;48.922;2.346;2023-02-28T09:21:03;153.33;151.00;144.33
62599;PMS7003;48671;48.922;2.346;2023-02-28T09:23:30;164.25;156.25;147.00
62599;PMS7003;48671;48.922;2.346;2023-02-28T09:25:55;154.00;150.67;144.67
62599;PMS7003;48671;48.922;2.346;2023-02-28T09:28:21;157.00;151.00;142.33
62599;PMS7003;48671;48.922;2.346;2023-02-28T09:30:47;157.75;146.00;138.50
62599;PMS7003;48671;48.922;2.346;2023-02-28T09:33:14;152.50;149.00;138.75
62599;PMS7003;48671;48.922;2.346;2023-02-28T09:35:40;143.00;138.67;133.00
62599;PMS7003;48671;48.922;2.346;2023-02-28T09:38:07;215.25;208.25;179.00
62599;PMS7003;48671;48.922;2.346;2023-02-28T09:40:35;147.25;142.25;137.50
62599;PMS7003;48671;48.922;2.346;2023-02-28T09:43:04;152.50;149.25;140.50
62599;PMS7003;48671;48.922;2.346;2023-02-28T09:45:35;146.75;141.00;134.25
62599;PMS7003;48671;48.922;2.346;2023-02-28T09:48:14;147.75;146.75;140.50
62599;PMS7003;48671;48.922;2.346;2023-02-28T09:53:23;169.00;168.00;152.33
62599;PMS7003;48671;48.922;2.346;2023-02-28T09:56:01;170.00;162.75;150.75
62599;PMS7003;48671;48.922;2.346;2023-02-28T09:58:44;134.33;131.00;124.00
62599;PMS7003;48671;48.922;2.346;2023-02-28T10:01:19;148.75;143.75;135.50
62599;PMS7003;48671;48.922;2.346;2023-02-28T10:04:00;248.33;246.00;184.00
62599;PMS7003;48671;48.922;2.346;2023-02-28T10:06:35;179.33;178.33;170.67
62599;PMS7003;48671;48.922;2.346;2023-02-28T10:09:39;159.00;156.33;143.33
62599;PMS7003;48671;48.922;2.346;2023-02-28T10:12:03;125.25;121.25;109.75
62599;PMS7003;48671;48.922;2.346;2023-02-28T10:14:31;180.00;175.00;153.75
62599;PMS7003;48671;48.922;2.346;2023-02-28T10:17:01;151.25;149.00;136.75
62599;PMS7003;48671;48.922;2.346;2023-02-28T10:19:35;143.50;143.25;135.50
62599;PMS7003;48671;48.922;2.346;2023-02-28T10:22:08;134.00;131.75;123.50
62599;PMS7003;48671;48.922;2.346;2023-02-28T10:27:12;182.50;181.25;166.75
62599;PMS7003;48671;48.922;2.346;2023-02-28T10:29:46;152.50;148.50;131.50
62599;PMS7003;48671;48.922;2.346;2023-02-28T10:32:18;189.75;187.25;167.75
62599;PMS7003;48671;48.922;2.346;2023-02-28T10:34:55;192.75;186.75;173.00
62599;PMS7003;48671;48.922;2.346;2023-02-28T10:37:22;190.00;187.33;172.00
62599;PMS7003;48671;48.922;2.346;2023-02-28T10:39:47;188.00;185.25;171.75
62599;PMS7003;48671;48.922;2.346;2023-02-28T10:42:26;224.50;223.75;210.25
62599;PMS7003;48671;48.922;2.346;2023-02-28T10:47:34;207.50;201.25;187.25
62599;PMS7003;48671;48.922;2.346;2023-02-28T11:04:11;153.60;151.60;143.40
62599;PMS7003;48671;48.922;2.346;2023-02-28T11:06:42;170.25;167.25;158.00
62599;PMS7003;48671;48.922;2.346;2023-02-28T11:09:25;144.75;143.75;134.25
62599;PMS7003;48671;48.922;2.346;2023-02-28T11:11:55;104.00;94.25;89.75
62599;PMS7003;48671;48.922;2.346;2023-02-28T11:14:40;123.00;122.00;115.33
62599;PMS7003;48671;48.922;2.346;2023-02-28T11:17:14;150.00;145.60;136.40
62599;PMS7003;48671;48.922;2.346;2023-02-28T11:19:49;139.00;135.80;126.20
62599;PMS7003;48671;48.922;2.346;2023-02-28T11:22:21;75.50;63.50;53.00
62599;PMS7003;48671;48.922;2.346;2023-02-28T11:24:53;119.25;117.00;109.25
62599;PMS7003;48671;48.922;2.346;2023-02-28T11:29:58;117.75;116.25;110.75
62599;PMS7003;48671;48.922;2.346;2023-02-28T11:32:25;97.25;85.75;79.00
62599;PMS7003;48671;48.922;2.346;2023-02-28T11:37:34;103.33;97.67;91.33
62599;PMS7003;48671;48.922;2.346;2023-02-28T11:40:00;76.00;63.25;50.75
62599;PMS7003;48671;48.922;2.346;2023-02-28T11:42:42;116.33;116.00;109.33
62599;PMS7003;48671;48.922;2.346;2023-02-28T11:45:21;102.00;95.25;92.50
62599;PMS7003;48671;48.922;2.346;2023-02-28T11:50:49;107.33;106.00;101.33
62599;PMS7003;48671;48.922;2.346;2023-02-28T12:01:25;100.00;94.25;91.25
62599;PMS7003;48671;48.922;2.346;2023-02-28T12:06:40;84.75;70.25;65.75
62599;PMS7003;48671;48.922;2.346;2023-02-28T12:18:53;91.00;78.25;74.25
62599;PMS7003;48671;48.922;2.346;2023-02-28T12:21:18;110.67;110.33;105.33
62599;PMS7003;48671;48.922;2.346;2023-02-28T12:26:48;87.75;73.00;69.25
62599;PMS7003;48671;48.922;2.346;2023-02-28T12:31:56;97.00;87.75;84.50
62599;PMS7003;48671;48.922;2.346;2023-02-28T12:34:33;99.75;93.75;91.00
62599;PMS7003;48671;48.922;2.346;2023-02-28T12:37:07;139.00;138.25;124.50
62599;PMS7003;48671;48.922;2.346;2023-02-28T12:39:41;111.00;110.25;99.50
62599;PMS7003;48671;48.922;2.346;2023-02-28T12:44:52;90.75;75.75;69.75
62599;PMS7003;48671;48.922;2.346;2023-02-28T12:47:21;72.00;60.25;50.50
62599;PMS7003;48671;48.922;2.346;2023-02-28T12:49:52;97.75;88.75;84.00
62599;PMS7003;48671;48.922;2.346;2023-02-28T12:52:28;146.50;131.25;120.25
62599;PMS7003;48671;48.922;2.346;2023-02-28T12:57:43;132.75;131.75;126.00
62599;PMS7003;48671;48.922;2.346;2023-02-28T13:00:20;138.00;138.00;132.00
62599;PMS7003;48671;48.922;2.346;2023-02-28T13:05:32;111.75;109.50;106.50
62599;PMS7003;48671;48.922;2.346;2023-02-28T13:10:52;69.75;58.50;48.00
62599;PMS7003;48671;48.922;2.346;2023-02-28T13:13:22;138.25;136.50;131.75
62599;PMS7003;48671;48.922;2.346;2023-02-28T13:16:01;75.50;62.50;52.25
62599;PMS7003;48671;48.922;2.346;2023-02-28T13:18:33;56.75;48.75;39.75
62599;PMS7003;48671;48.922;2.346;2023-02-28T13:21:02;104.25;97.25;94.00
62599;PMS7003;48671;48.922;2.346;2023-02-28T13:26:16;76.25;63.50;55.25
62599;PMS7003;48671;48.922;2.346;2023-02-28T13:31:15;115.25;115.00;109.75
62599;PMS7003;48671;48.922;2.346;2023-02-28T13:46:27;0.50;0.50;0.50
62599;PMS7003;48671;48.922;2.346;2023-02-28T13:48:53;29.50;29.50;26.50
62599;PMS7003;48671;48.922;2.346;2023-02-28T13:52:02;1.00;1.00;1.00
62599;PMS7003;48671;48.922;2.346;2023-02-28T13:57:10;41.50;40.25;34.00
62599;PMS7003;48671;48.922;2.346;2023-02-28T14:00:00;25.00;25.00;21.00
62599;PMS7003;48671;48.922;2.346;2023-02-28T14:03:01;19.50;19.50;18.75
62599;PMS7003;48671;48.922;2.346;2023-02-28T14:05:44;64.25;54.75;43.50
62599;PMS7003;48671;48.922;2.346;2023-02-28T14:08:18;29.75;29.75;26.50
62599;PMS7003;48671;48.922;2.346;2023-02-28T14:10:47;37.00;36.50;30.50
62599;PMS7003;48671;48.922;2.346;2023-02-28T14:16:02;23.00;23.00;22.00
62599;PMS7003;48671;48.922;2.346;2023-02-28T14:21:09;6.25;6.25;6.00
62599;PMS7003;48671;48.922;2.346;2023-02-28T14:37:47;31.75;31.75;28.25
62599;PMS7003;48671;48.922;2.346;2023-02-28T14:40:28;10.50;10.50;9.50
62599;PMS7003;48671;48.922;2.346;2023-02-28T14:43:01;11.00;11.00;10.75
62599;PMS7003;48671;48.922;2.346;2023-02-28T14:45:30;22.75;22.75;19.00
62599;PMS7003;48671;48.922;2.346;2023-02-28T14:48:01;0.00;0.00;0.00
62599;PMS7003;48671;48.922;2.346;2023-02-28T14:50:37;0.75;0.75;0.75
62599;PMS7003;48671;48.922;2.346;2023-02-28T14:53:03;1.00;1.00;1.00
62599;PMS7003;48671;48.922;2.346;2023-02-28T14:55:34;18.25;18.25;17.50
62599;PMS7003;48671;48.922;2.346;2023-02-28T14:58:04;3.00;3.00;2.75
62599;PMS7003;48671;48.922;2.346;2023-02-28T15:00:34;4.50;4.50;3.75
62599;PMS7003;48671;48.922;2.346;2023-02-28T15:03:30;2.75;2.75;2.75
62599;PMS7003;48671;48.922;2.346;2023-02-28T15:05:59;8.75;8.75;8.00
62599;PMS7003;48671;48.922;2.346;2023-02-28T15:08:27;2.50;2.50;2.25
62599;PMS7003;48671;48.922;2.346;2023-02-28T15:11:01;25.00;25.00;16.50
62599;PMS7003;48671;48.922;2.346;2023-02-28T15:13:43;0.00;0.00;0.00
62599;PMS7003;48671;48.922;2.346;2023-02-28T15:16:16;1.00;1.00;0.50
62599;PMS7003;48671;48.922;2.346;2023-02-28T15:21:27;2.25;2.25;2.00
62599;PMS7003;48671;48.922;2.346;2023-02-28T15:23:57;2.75;2.75;2.50
62599;PMS7003;48671;48.922;2.346;2023-02-28T15:26:39;20.00;20.00;20.00
62599;PMS7003;48671;48.922;2.346;2023-02-28T15:29:13;20.50;20.50;20.50
62599;PMS7003;48671;48.922;2.346;2023-02-28T15:31:45;32.50;32.50;28.50
62599;PMS7003;48671;48.922;2.346;2023-02-28T15:34:18;29.50;29.50;26.00
62599;PMS7003;48671;48.922;2.346;2023-02-28T15:36:46;32.50;32.50;29.00
62599;PMS7003;48671;48.922;2.346;2023-02-28T15:39:27;22.50;22.50;21.00
62599;PMS7003;48671;48.922;2.346;2023-02-28T15:42:12;68.00;58.00;47.50
62599;PMS7003;48671;48.922;2.346;2023-02-28T15:44:44;3.25;3.25;3.25
62599;PMS7003;48671;48.922;2.346;2023-02-28T15:47:17;7.75;7.75;6.50
62599;PMS7003;48671;48.922;2.346;2023-02-28T15:52:17;26.00;26.00;24.25
62599;PMS7003;48671;48.922;2.346;2023-02-28T15:54:47;19.50;19.50;19.25
62599;PMS7003;48671;48.922;2.346;2023-02-28T15:57:15;18.25;18.25;17.75
62599;PMS7003;48671;48.922;2.346;2023-02-28T15:59:48;6.25;6.25;6.25
62599;PMS7003;48671;48.922;2.346;2023-02-28T16:02:36;3.50;3.50;2.50
62599;PMS7003;48671;48.922;2.346;2023-02-28T16:05:50;1.00;1.00;1.00
62599;PMS7003;48671;48.922;2.346;2023-02-28T16:07:58;14.25;14.25;13.00
62599;PMS7003;48671;48.922;2.346;2023-02-28T16:10:38;4.25;4.25;4.25
62599;PMS7003;48671;48.922;2.346;2023-02-28T16:13:03;0.00;0.00;0.00
62599;PMS7003;48671;48.922;2.346;2023-02-28T16:15:30;1.25;1.25;1.00
62599;PMS7003;48671;48.922;2.346;2023-02-28T16:18:07;5.25;5.25;4.75
62599;PMS7003;48671;48.922;2.346;2023-02-28T16:20:35;4.25;4.25;4.25